Time,TemperatureF,DewpointF,PressureIn,WindDirection,WindDirectionDegrees,WindSpeedMPH,WindSpeedGustMPH,Humidity,HourlyPrecipIn,Conditions,Clouds,dailyrainin,SoftwareType,DateUTC
2013-01-20 00:00:00,65.1,64.5,30.13,North,0,0.0,1.0,98,0.01,,OVC055,0.28,VWS V14.01,2013-01-20 05:00:00,
2013-01-20 00:03:00,65.2,64.6,30.13,North,0,0.0,3.0,98,0.00,,OVC080,0.00,VWS V14.01,2013-01-20 05:03:00,
2013-01-20 00:08:00,65.3,64.7,30.12,North,0,0.0,3.0,98,0.00,,OVC080,0.00,VWS V14.01,2013-01-20 05:08:00,
2013-01-20 00:13:00,65.5,64.9,30.12,NNW,343,0.0,3.0,98,0.00,,OVC080,0.00,VWS V14.01,2013-01-20 05:13:00,
2013-01-20 00:18:00,65.8,65.2,30.13,North,0,2.0,4.0,98,0.00,,OVC080,0.00,VWS V14.01,2013-01-20 05:18:00,
2013-01-20 00:23:00,66.0,65.4,30.12,North,0,0.0,4.0,98,0.00,,OVC080,0.00,VWS V14.01,2013-01-20 05:23:00,
2013-01-20 00:28:00,66.1,65.5,30.12,North,6,1.0,4.0,98,0.00,,OVC080,0.00,VWS V14.01,2013-01-20 05:28:00,
2013-01-20 00:33:00,66.1,65.5,30.13,NNE,22,4.0,4.0,98,0.00,,OVC080,0.00,VWS V14.01,2013-01-20 05:33:00,
2013-01-20 00:38:00,66.2,65.3,30.12,NNE,12,0.0,4.0,97,0.00,,OVC080,0.00,VWS V14.01,2013-01-20 05:38:00,
2013-01-20 00:43:00,66.3,65.7,30.12,North,0,0.0,4.0,98,0.00,,OVC080,0.00,VWS V14.01,2013-01-20 05:43:00,
2013-01-20 00:48:00,66.3,65.7,30.12,North,2,0.0,4.0,98,0.00,,OVC080,0.00,VWS V14.01,2013-01-20 05:48:00,
2013-01-20 00:53:00,66.3,65.4,30.12,North,1,2.0,4.0,97,0.00,,OVC080,0.00,VWS V14.01,2013-01-20 05:53:00,
2013-01-20 00:58:00,66.1,65.2,30.11,North,2,0.0,4.0,97,0.00,,OVC080,0.00,VWS V14.01,2013-01-20 05:58:00,
2013-01-20 01:03:00,65.9,65.0,30.12,North,359,5.0,5.0,97,0.00,,OVC080,0.00,VWS V14.01,2013-01-20 06:03:00,
2013-01-20 01:08:00,65.8,64.9,30.11,North,359,0.0,6.0,97,0.00,,OVC080,0.00,VWS V14.01,2013-01-20 06:08:00,
2013-01-20 01:13:00,65.7,64.8,30.11,North,8,2.0,6.0,97,0.00,,OVC080,0.00,VWS V14.01,2013-01-20 06:13:00,
2013-01-20 01:18:00,65.8,65.2,30.12,North,0,0.0,6.0,98,0.00,,OVC080,0.00,VWS V14.01,2013-01-20 06:18:00,
2013-01-20 01:23:00,65.9,65.3,30.11,NNW,348,0.0,6.0,98,0.00,,OVC080,0.00,VWS V14.01,2013-01-20 06:23:00,
2013-01-20 01:28:00,66.2,65.6,30.12,NW,319,3.0,6.0,98,0.00,,OVC080,0.00,VWS V14.01,2013-01-20 06:28:00,
2013-01-20 01:33:00,66.3,65.7,30.12,NNW,329,3.0,6.0,98,0.00,,OVC075,0.00,VWS V14.01,2013-01-20 06:33:00,
2013-01-20 01:38:00,66.3,65.7,30.11,North,1,0.0,6.0,98,0.00,,OVC075,0.00,VWS V14.01,2013-01-20 06:38:00,
2013-01-20 01:43:00,66.3,65.7,30.11,NNW,338,1.0,6.0,98,0.00,,OVC075,0.00,VWS V14.01,2013-01-20 06:43:00,
2013-01-20 01:48:00,66.4,65.8,30.11,NNW,348,2.0,6.0,98,0.00,,OVC075,0.00,VWS V14.01,2013-01-20 06:48:00,
2013-01-20 01:53:00,66.5,65.6,30.11,NNE,13,0.0,6.0,97,0.00,,OVC075,0.00,VWS V14.01,2013-01-20 06:53:00,
2013-01-20 01:58:00,66.5,65.9,30.11,North,0,2.0,6.0,98,0.00,,OVC075,0.00,VWS V14.01,2013-01-20 06:58:00,
2013-01-20 02:03:00,66.6,65.7,30.10,NNE,14,0.0,3.0,97,0.00,,BKN075,0.00,VWS V14.01,2013-01-20 07:03:00,
2013-01-20 02:08:00,66.5,65.6,30.09,NNE,19,0.0,4.0,97,0.00,,BKN075,0.00,VWS V14.01,2013-01-20 07:08:00,
2013-01-20 02:13:00,66.5,65.6,30.10,North,353,0.0,4.0,97,0.00,,BKN075,0.00,VWS V14.01,2013-01-20 07:13:00,
2013-01-20 02:18:00,66.4,65.5,30.10,North,0,0.0,4.0,97,0.00,,,0.00,VWS V14.01,2013-01-20 07:18:00,
2013-01-20 02:23:00,66.3,65.4,30.10,North,0,3.0,4.0,97,0.00,,,0.00,VWS V14.01,2013-01-20 07:23:00,
2013-01-20 02:28:00,66.3,65.4,30.10,North,0,0.0,4.0,97,0.00,,,0.00,VWS V14.01,2013-01-20 07:28:00,
2013-01-20 02:33:00,66.2,65.6,30.10,North,0,0.0,4.0,98,0.00,,,0.00,VWS V14.01,2013-01-20 07:33:00,
2013-01-20 02:38:00,66.2,65.3,30.10,NNW,347,0.0,4.0,97,0.00,,,0.00,VWS V14.01,2013-01-20 07:38:00,
2013-01-20 02:43:00,66.2,65.0,30.09,NNW,347,0.0,4.0,96,0.00,,,0.00,VWS V14.01,2013-01-20 07:43:00,
2013-01-20 02:48:00,66.2,65.3,30.09,NNW,347,0.0,4.0,97,0.00,,,0.00,VWS V14.01,2013-01-20 07:48:00,
2013-01-20 02:53:00,66.2,65.3,30.10,NNW,345,0.0,4.0,97,0.00,,,0.00,VWS V14.01,2013-01-20 07:53:00,
2013-01-20 02:58:00,66.2,65.3,30.09,NNW,344,0.0,4.0,97,0.00,,,0.00,VWS V14.01,2013-01-20 07:58:00,
2013-01-20 03:03:00,66.2,65.3,30.10,NNW,344,0.0,0.0,97,0.00,,,0.00,VWS V14.01,2013-01-20 08:03:00,
2013-01-20 03:08:00,66.1,65.2,30.10,NNW,328,2.0,4.0,97,0.00,,,0.00,VWS V14.01,2013-01-20 08:08:00,
2013-01-20 03:13:00,66.2,65.3,30.10,NNW,327,2.0,4.0,97,0.00,,,0.00,VWS V14.01,2013-01-20 08:13:00,
2013-01-20 03:18:00,66.2,65.3,30.09,NNW,327,0.0,4.0,97,0.00,,,0.00,VWS V14.01,2013-01-20 08:18:00,
2013-01-20 03:23:00,66.2,65.3,30.09,NNW,328,0.0,4.0,97,0.00,,,0.00,VWS V14.01,2013-01-20 08:23:00,
2013-01-20 03:28:00,66.2,65.3,30.10,NW,308,2.0,4.0,97,0.00,,,0.00,VWS V14.01,2013-01-20 08:28:00,
2013-01-20 03:33:00,66.2,65.3,30.10,NW,307,2.0,4.0,97,0.00,,,0.00,VWS V14.01,2013-01-20 08:33:00,
2013-01-20 03:38:00,66.1,65.2,30.10,NW,314,2.0,5.0,97,0.00,,,0.00,VWS V14.01,2013-01-20 08:38:00,
2013-01-20 03:43:00,66.0,65.1,30.10,NW,307,2.0,5.0,97,0.00,,,0.00,VWS V14.01,2013-01-20 08:43:00,
2013-01-20 03:48:00,65.9,65.0,30.10,NW,307,2.0,5.0,97,0.00,,,0.00,VWS V14.01,2013-01-20 08:48:00,
2013-01-20 03:53:00,65.8,64.9,30.10,WNW,303,0.0,5.0,97,0.00,,,0.00,VWS V14.01,2013-01-20 08:53:00,
2013-01-20 03:58:00,65.4,64.2,30.10,WNW,303,0.0,5.0,96,0.00,,,0.00,VWS V14.01,2013-01-20 08:58:00,
2013-01-20 04:03:00,65.2,64.0,30.10,WNW,302,0.0,1.0,96,0.00,,FEW014,0.00,VWS V14.01,2013-01-20 09:03:00,
2013-01-20 04:08:00,65.2,64.0,30.10,NW,325,0.0,4.0,96,0.00,,FEW014,0.00,VWS V14.01,2013-01-20 09:08:00,
2013-01-20 04:13:00,65.0,64.1,30.10,NW,317,0.0,5.0,97,0.00,,FEW014,0.00,VWS V14.01,2013-01-20 09:13:00,
2013-01-20 04:18:00,64.8,63.6,30.10,NNW,345,2.0,5.0,96,0.00,,FEW014,0.00,VWS V14.01,2013-01-20 09:18:00,
2013-01-20 04:23:00,64.7,63.8,30.10,WNW,290,2.0,5.0,97,0.00,,BKN022,0.00,VWS V14.01,2013-01-20 09:23:00,
2013-01-20 04:28:00,64.6,63.4,30.10,NW,310,0.0,6.0,96,0.00,,BKN022,0.00,VWS V14.01,2013-01-20 09:28:00,
2013-01-20 04:33:00,64.5,63.3,30.10,NW,311,0.0,6.0,96,0.00,,BKN022,0.00,VWS V14.01,2013-01-20 09:33:00,
2013-01-20 04:38:00,64.5,63.3,30.09,NW,311,0.0,6.0,96,0.00,,BKN022,0.00,VWS V14.01,2013-01-20 09:38:00,
2013-01-20 04:43:00,64.4,63.2,30.09,NW,311,0.0,6.0,96,0.00,,SCT080,0.00,VWS V14.01,2013-01-20 09:43:00,
2013-01-20 04:48:00,64.4,63.2,30.09,NW,310,3.0,6.0,96,0.00,,SCT080,0.00,VWS V14.01,2013-01-20 09:48:00,
2013-01-20 04:53:00,64.4,63.2,30.10,NW,310,0.0,6.0,96,0.00,,SCT080,0.00,VWS V14.01,2013-01-20 09:53:00,
2013-01-20 04:58:00,64.3,63.1,30.09,NW,309,0.0,6.0,96,0.00,,SCT080,0.00,VWS V14.01,2013-01-20 09:58:00,
2013-01-20 05:03:00,64.3,63.4,30.10,NW,312,0.0,5.0,97,0.00,,FEW015,0.00,VWS V14.01,2013-01-20 10:03:00,
2013-01-20 05:08:00,64.3,63.7,30.09,WNW,302,0.0,5.0,98,0.00,,FEW015,0.00,VWS V14.01,2013-01-20 10:08:00,
2013-01-20 05:13:00,64.2,63.3,30.09,NW,312,0.0,5.0,97,0.00,,FEW015,0.00,VWS V14.01,2013-01-20 10:13:00,
2013-01-20 05:18:00,64.2,63.6,30.09,WNW,295,0.0,5.0,98,0.00,,FEW015,0.00,VWS V14.01,2013-01-20 10:18:00,
2013-01-20 05:23:00,64.2,63.0,30.10,NW,315,0.0,5.0,96,0.00,,FEW015,0.00,VWS V14.01,2013-01-20 10:23:00,
2013-01-20 05:28:00,64.1,62.9,30.10,NW,311,0.0,5.0,96,0.00,,FEW015,0.00,VWS V14.01,2013-01-20 10:28:00,
2013-01-20 05:33:00,63.8,62.6,30.10,NW,305,0.0,5.0,96,0.00,,FEW015,0.00,VWS V14.01,2013-01-20 10:33:00,
2013-01-20 05:38:00,63.7,62.5,30.10,NW,316,0.0,5.0,96,0.00,,FEW015,0.00,VWS V14.01,2013-01-20 10:38:00,
2013-01-20 05:43:00,63.7,62.5,30.11,NW,315,0.0,5.0,96,0.00,,FEW015,0.00,VWS V14.01,2013-01-20 10:43:00,
2013-01-20 05:48:00,63.7,62.5,30.11,NW,314,0.0,5.0,96,0.00,,FEW015,0.00,VWS V14.01,2013-01-20 10:48:00,
2013-01-20 05:53:00,63.8,62.9,30.10,NW,311,0.0,5.0,97,0.00,,FEW015,0.00,VWS V14.01,2013-01-20 10:53:00,
2013-01-20 05:58:00,63.7,62.5,30.10,NW,309,0.0,5.0,96,0.00,,FEW015,0.00,VWS V14.01,2013-01-20 10:58:00,
2013-01-20 06:03:00,63.7,62.8,30.11,WNW,296,0.0,0.0,97,0.00,,OVC085,0.00,VWS V14.01,2013-01-20 11:03:00,
2013-01-20 06:08:00,63.7,62.5,30.10,WNW,289,0.0,0.0,96,0.00,,OVC085,0.00,VWS V14.01,2013-01-20 11:08:00,
2013-01-20 06:13:00,63.6,62.4,30.10,NW,326,0.0,0.0,96,0.00,,OVC085,0.00,VWS V14.01,2013-01-20 11:13:00,
2013-01-20 06:18:00,63.5,62.3,30.10,NNW,327,0.0,0.0,96,0.00,,OVC085,0.00,VWS V14.01,2013-01-20 11:18:00,
2013-01-20 06:23:00,63.4,62.2,30.10,WNW,292,0.0,0.0,96,0.00,,OVC085,0.00,VWS V14.01,2013-01-20 11:23:00,
2013-01-20 06:28:00,63.4,62.2,30.10,NW,310,0.0,0.0,96,0.00,,OVC085,0.00,VWS V14.01,2013-01-20 11:28:00,
2013-01-20 06:33:00,63.3,62.1,30.10,NW,312,0.0,0.0,96,0.00,,OVC085,0.00,VWS V14.01,2013-01-20 11:33:00,
2013-01-20 06:38:00,63.3,62.1,30.11,WNW,303,0.0,0.0,96,0.00,,OVC085,0.00,VWS V14.01,2013-01-20 11:38:00,
2013-01-20 06:43:00,63.3,62.1,30.10,NW,310,0.0,0.0,96,0.00,,OVC085,0.00,VWS V14.01,2013-01-20 11:43:00,
2013-01-20 06:48:00,63.3,62.1,30.10,WNW,291,0.0,0.0,96,0.00,,OVC085,0.00,VWS V14.01,2013-01-20 11:48:00,
2013-01-20 06:53:00,63.3,62.4,30.11,NW,318,0.0,0.0,97,0.00,,OVC085,0.00,VWS V14.01,2013-01-20 11:53:00,
2013-01-20 06:58:00,63.3,62.4,30.11,NW,315,0.0,0.0,97,0.00,,OVC085,0.00,VWS V14.01,2013-01-20 11:58:00,
2013-01-20 07:03:00,63.3,62.4,30.11,NW,310,0.0,0.0,97,0.00,,,0.00,VWS V14.01,2013-01-20 12:03:00,
2013-01-20 07:08:00,63.2,62.3,30.11,NW,306,0.0,0.0,97,0.00,,,0.00,VWS V14.01,2013-01-20 12:08:00,
2013-01-20 07:13:00,63.3,62.1,30.12,NW,326,0.0,0.0,96,0.00,,,0.00,VWS V14.01,2013-01-20 12:13:00,
2013-01-20 07:18:00,63.2,62.3,30.11,NW,316,0.0,0.0,97,0.00,,,0.00,VWS V14.01,2013-01-20 12:18:00,
2013-01-20 07:23:00,63.2,62.3,30.12,NW,306,0.0,0.0,97,0.00,,,0.00,VWS V14.01,2013-01-20 12:23:00,
2013-01-20 07:28:00,63.2,62.3,30.12,NW,304,0.0,0.0,97,0.00,,,0.00,VWS V14.01,2013-01-20 12:28:00,
2013-01-20 07:33:00,63.2,62.3,30.13,NW,317,0.0,0.0,97,0.00,,,0.00,VWS V14.01,2013-01-20 12:33:00,
2013-01-20 07:38:00,63.2,62.3,30.14,NW,315,0.0,0.0,97,0.00,,,0.00,VWS V14.01,2013-01-20 12:38:00,
2013-01-20 07:43:00,63.2,62.3,30.14,WNW,295,0.0,0.0,97,0.00,,,0.00,VWS V14.01,2013-01-20 12:43:00,
2013-01-20 07:48:00,63.2,62.3,30.14,WNW,298,0.0,0.0,97,0.00,,,0.00,VWS V14.01,2013-01-20 12:48:00,
2013-01-20 07:53:00,63.2,62.3,30.14,WNW,299,0.0,0.0,97,0.00,,,0.00,VWS V14.01,2013-01-20 12:53:00,
2013-01-20 07:58:00,63.2,62.3,30.14,WNW,300,0.0,0.0,97,0.00,,,0.00,VWS V14.01,2013-01-20 12:58:00,
2013-01-20 08:03:00,63.2,62.0,30.15,WNW,300,0.0,0.0,96,0.00,,,0.00,VWS V14.01,2013-01-20 13:03:00,
2013-01-20 08:08:00,63.2,62.3,30.15,NW,313,0.0,0.0,97,0.00,,,0.00,VWS V14.01,2013-01-20 13:08:00,
2013-01-20 08:13:00,63.3,62.4,30.15,NW,317,0.0,0.0,97,0.00,,,0.00,VWS V14.01,2013-01-20 13:13:00,
2013-01-20 08:18:00,63.4,62.5,30.14,NW,311,0.0,0.0,97,0.00,,,0.00,VWS V14.01,2013-01-20 13:18:00,
2013-01-20 08:24:00,63.6,62.7,30.16,NW,320,0.0,0.0,97,0.00,,,0.00,VWS V14.01,2013-01-20 13:24:00,
2013-01-20 08:29:00,63.7,62.8,30.15,NW,318,0.0,0.0,97,0.00,,,0.00,VWS V14.01,2013-01-20 13:29:00,
2013-01-20 08:33:00,63.7,63.1,30.15,WNW,290,0.0,0.0,98,0.00,,,0.00,VWS V14.01,2013-01-20 13:33:00,
2013-01-20 08:38:00,63.7,63.4,30.16,WNW,298,0.0,0.0,99,0.00,,,0.00,VWS V14.01,2013-01-20 13:38:00,
2013-01-20 08:43:00,63.9,63.6,30.15,WNW,299,0.0,0.0,99,0.00,,,0.00,VWS V14.01,2013-01-20 13:43:00,
2013-01-20 08:49:00,64.1,63.2,30.16,NW,320,0.0,0.0,97,0.00,,,0.00,VWS V14.01,2013-01-20 13:49:00,
2013-01-20 08:54:00,64.3,63.4,30.16,NW,324,0.0,0.0,97,0.00,,,0.00,VWS V14.01,2013-01-20 13:54:00,
2013-01-20 08:59:00,64.5,63.6,30.16,NNW,328,0.0,0.0,97,0.00,,,0.00,VWS V14.01,2013-01-20 13:59:00,
2013-01-20 09:04:00,64.7,63.8,30.16,North,359,0.0,0.0,97,0.00,,,0.00,VWS V14.01,2013-01-20 14:04:00,
2013-01-20 09:09:00,64.9,64.0,30.16,NNW,348,0.0,0.0,97,0.00,,,0.00,VWS V14.01,2013-01-20 14:09:00,
2013-01-20 09:14:00,65.3,64.4,30.16,NNW,331,0.0,0.0,97,0.00,,,0.00,VWS V14.01,2013-01-20 14:14:00,
2013-01-20 09:19:00,65.6,65.3,30.16,NW,323,0.0,9.0,99,0.00,,,0.00,VWS V14.01,2013-01-20 14:19:00,
2013-01-20 09:24:00,65.9,64.7,30.17,NNW,331,5.0,9.0,96,0.00,,,0.00,VWS V14.01,2013-01-20 14:24:00,
2013-01-20 09:29:00,66.3,65.1,30.17,NNW,338,0.0,9.0,96,0.00,,,0.00,VWS V14.01,2013-01-20 14:29:00,
2013-01-20 09:34:00,66.5,65.3,30.17,NNW,329,0.0,9.0,96,0.00,,,0.00,VWS V14.01,2013-01-20 14:34:00,
2013-01-20 09:39:00,67.1,65.9,30.17,NNW,339,1.0,9.0,96,0.00,,,0.00,VWS V14.01,2013-01-20 14:39:00,
2013-01-20 09:44:00,67.4,65.9,30.16,NW,312,1.0,9.0,95,0.00,,,0.00,VWS V14.01,2013-01-20 14:44:00,
2013-01-20 09:49:00,68.0,66.8,30.16,WNW,296,3.0,9.0,96,0.00,,,0.00,VWS V14.01,2013-01-20 14:49:00,
2013-01-20 09:54:00,68.2,65.8,30.17,North,359,1.0,9.0,92,0.00,,,0.00,VWS V14.01,2013-01-20 14:54:00,
2013-01-20 09:59:00,68.5,66.4,30.17,North,356,0.0,9.0,93,0.00,,,0.00,VWS V14.01,2013-01-20 14:59:00,
2013-01-20 10:04:00,68.7,66.0,30.17,NNW,328,0.0,2.0,91,0.00,,BKN085,0.00,VWS V14.01,2013-01-20 15:04:00,
2013-01-20 10:09:00,68.9,66.8,30.16,WNW,292,0.0,2.0,93,0.00,,BKN085,0.00,VWS V14.01,2013-01-20 15:09:00,
2013-01-20 10:14:00,69.1,66.1,30.16,NNW,330,0.0,2.0,90,0.00,,BKN085,0.00,VWS V14.01,2013-01-20 15:14:00,
2013-01-20 10:19:00,69.0,65.9,30.16,North,359,0.0,2.0,90,0.00,,BKN085,0.00,VWS V14.01,2013-01-20 15:19:00,
2013-01-20 10:24:00,69.0,65.9,30.16,North,0,0.0,2.0,90,0.00,,BKN085,0.00,VWS V14.01,2013-01-20 15:24:00,
2013-01-20 10:29:00,69.2,65.8,30.16,NNE,24,0.0,2.0,89,0.00,,BKN085,0.00,VWS V14.01,2013-01-20 15:29:00,
2013-01-20 10:34:00,69.3,66.6,30.17,NNW,328,0.0,2.0,91,0.00,,BKN085,0.00,VWS V14.01,2013-01-20 15:34:00,
2013-01-20 10:39:00,69.7,67.0,30.16,NW,325,0.0,2.0,91,0.00,,BKN085,0.00,VWS V14.01,2013-01-20 15:39:00,
2013-01-20 10:44:00,69.8,66.1,30.16,NW,304,0.0,2.0,88,0.00,,BKN085,0.00,VWS V14.01,2013-01-20 15:44:00,
2013-01-20 10:49:00,70.1,66.4,30.16,North,354,0.0,2.0,88,0.00,,BKN085,0.00,VWS V14.01,2013-01-20 15:49:00,
2013-01-20 10:54:00,70.2,66.8,30.16,North,2,0.0,2.0,89,0.00,,BKN085,0.00,VWS V14.01,2013-01-20 15:54:00,
2013-01-20 10:59:00,70.3,66.9,30.16,North,9,0.0,2.0,89,0.00,,BKN085,0.00,VWS V14.01,2013-01-20 15:59:00,
2013-01-20 11:04:00,70.3,66.2,30.15,NNE,18,1.0,9.0,87,0.00,,BKN085,0.00,VWS V14.01,2013-01-20 16:04:00,
2013-01-20 11:09:00,70.6,66.6,30.15,North,0,9.0,10.0,87,0.00,,BKN085,0.00,VWS V14.01,2013-01-20 16:09:00,
2013-01-20 11:14:00,70.5,67.1,30.14,NNW,339,3.0,10.0,89,0.00,,BKN085,0.00,VWS V14.01,2013-01-20 16:14:00,
2013-01-20 11:19:00,71.1,67.0,30.13,NNE,29,3.0,10.0,87,0.00,,BKN085,0.00,VWS V14.01,2013-01-20 16:19:00,
2013-01-20 11:24:00,71.3,67.2,30.13,NW,314,0.0,10.0,87,0.00,,BKN085,0.00,VWS V14.01,2013-01-20 16:24:00,
2013-01-20 11:29:00,71.5,67.1,30.13,NNW,348,3.0,10.0,86,0.00,,BKN085,0.00,VWS V14.01,2013-01-20 16:29:00,
2013-01-20 11:34:00,71.4,67.0,30.13,NW,321,3.0,10.0,86,0.00,,BKN085,0.00,VWS V14.01,2013-01-20 16:34:00,
2013-01-20 11:39:00,71.6,67.2,30.13,North,7,0.0,10.0,86,0.00,,BKN085,0.00,VWS V14.01,2013-01-20 16:39:00,
2013-01-20 11:44:00,71.4,67.0,30.12,NNE,25,5.0,10.0,86,0.00,,BKN085,0.00,VWS V14.01,2013-01-20 16:44:00,
2013-01-20 11:49:00,71.5,67.1,30.12,North,357,1.0,10.0,86,0.00,,BKN085,0.00,VWS V14.01,2013-01-20 16:49:00,
2013-01-20 11:54:00,71.7,67.6,30.12,North,6,4.0,10.0,87,0.00,,BKN085,0.00,VWS V14.01,2013-01-20 16:54:00,
2013-01-20 11:59:00,71.7,67.3,30.12,North,7,3.0,12.0,86,0.00,,BKN014,0.00,VWS V14.01,2013-01-20 16:59:00,
2013-01-20 12:04:00,71.7,66.9,30.12,North,0,1.0,9.0,85,0.00,,BKN017,0.00,VWS V14.01,2013-01-20 17:04:00,
2013-01-20 12:09:00,71.7,66.9,30.11,NNE,12,3.0,10.0,85,0.00,,BKN017,0.00,VWS V14.01,2013-01-20 17:09:00,
2013-01-20 12:14:00,71.9,66.5,30.12,NE,46,7.0,10.0,83,0.00,,BKN017,0.00,VWS V14.01,2013-01-20 17:14:00,
2013-01-20 12:19:00,71.7,66.6,30.11,NNE,16,4.0,10.0,84,0.00,,BKN017,0.00,VWS V14.01,2013-01-20 17:19:00,
2013-01-20 12:24:00,71.7,66.3,30.10,North,9,10.0,12.0,83,0.00,,BKN017,0.00,VWS V14.01,2013-01-20 17:24:00,
2013-01-20 12:29:00,72.0,66.6,30.11,NE,49,5.0,13.0,83,0.00,,BKN017,0.00,VWS V14.01,2013-01-20 17:29:00,
2013-01-20 12:34:00,72.1,66.3,30.10,NNW,338,7.0,13.0,82,0.00,,BKN017,0.00,VWS V14.01,2013-01-20 17:34:00,
2013-01-20 12:39:00,72.3,66.2,30.10,North,0,4.0,13.0,81,0.00,,BKN017,0.00,VWS V14.01,2013-01-20 17:39:00,
2013-01-20 12:44:00,72.4,66.2,30.10,NNE,25,7.0,13.0,81,0.00,,BKN017,0.00,VWS V14.01,2013-01-20 17:44:00,
2013-01-20 12:49:00,72.2,65.7,30.10,North,3,4.0,15.0,80,0.00,,BKN017,0.00,VWS V14.01,2013-01-20 17:49:00,
2013-01-20 12:54:00,72.5,66.3,30.09,NW,309,3.0,15.0,81,0.00,,BKN017,0.00,VWS V14.01,2013-01-20 17:54:00,
2013-01-20 12:59:00,72.6,66.1,30.10,North,351,5.0,15.0,80,0.00,,BKN017,0.00,VWS V14.01,2013-01-20 17:59:00,
2013-01-20 13:04:00,72.5,66.7,30.10,North,353,3.0,8.0,82,0.00,,OVC037,0.00,VWS V14.01,2013-01-20 18:04:00,
2013-01-20 13:09:00,72.4,66.2,30.09,North,352,2.0,14.0,81,0.00,,OVC037,0.00,VWS V14.01,2013-01-20 18:09:00,
2013-01-20 13:14:00,72.5,66.7,30.09,NNW,329,3.0,14.0,82,0.00,,OVC037,0.00,VWS V14.01,2013-01-20 18:14:00,
2013-01-20 13:19:00,72.2,66.4,30.09,NNW,340,3.0,14.0,82,0.00,,OVC037,0.00,VWS V14.01,2013-01-20 18:19:00,
2013-01-20 13:24:00,71.9,66.5,30.09,NW,309,2.0,14.0,83,0.00,,OVC037,0.00,VWS V14.01,2013-01-20 18:24:00,
2013-01-20 13:29:00,71.5,65.7,30.09,North,355,4.0,14.0,82,0.00,,OVC037,0.00,VWS V14.01,2013-01-20 18:29:00,
2013-01-20 13:34:00,71.2,65.8,30.09,NNE,16,3.0,14.0,83,0.00,,OVC037,0.00,VWS V14.01,2013-01-20 18:34:00,
2013-01-20 13:39:00,71.2,65.8,30.08,North,353,8.0,14.0,83,0.00,,OVC037,0.00,VWS V14.01,2013-01-20 18:39:00,
2013-01-20 13:44:00,71.3,66.2,30.08,North,354,4.0,14.0,84,0.00,,OVC037,0.00,VWS V14.01,2013-01-20 18:44:00,
2013-01-20 13:49:00,71.6,66.2,30.08,North,357,9.0,14.0,83,0.00,,OVC037,0.00,VWS V14.01,2013-01-20 18:49:00,
2013-01-20 13:54:00,71.6,66.5,30.08,NNE,17,4.0,14.0,84,0.00,,OVC037,0.00,VWS V14.01,2013-01-20 18:54:00,
2013-01-20 13:59:00,71.9,66.8,30.07,North,349,8.0,14.0,84,0.00,,OVC037,0.00,VWS V14.01,2013-01-20 18:59:00,
2013-01-20 14:04:00,71.7,66.3,30.08,NNE,16,4.0,11.0,83,0.00,,OVC037,0.00,VWS V14.01,2013-01-20 19:04:00,
2013-01-20 14:09:00,71.5,66.1,30.08,NNE,33,8.0,11.0,83,0.00,,OVC033,0.00,VWS V14.01,2013-01-20 19:09:00,
2013-01-20 14:14:00,71.1,66.0,30.07,North,0,3.0,13.0,84,0.00,,OVC033,0.00,VWS V14.01,2013-01-20 19:14:00,
2013-01-20 14:19:00,70.8,65.0,30.07,North,0,9.0,13.0,82,0.00,,OVC033,0.00,VWS V14.01,2013-01-20 19:19:00,
2013-01-20 14:24:00,70.5,65.1,30.07,North,8,6.0,13.0,83,0.00,,OVC033,0.00,VWS V14.01,2013-01-20 19:24:00,
2013-01-20 14:29:00,70.5,65.4,30.08,North,8,7.0,13.0,84,0.00,,OVC033,0.00,VWS V14.01,2013-01-20 19:29:00,
2013-01-20 14:34:00,70.6,65.9,30.07,NNE,28,5.0,13.0,85,0.00,,OVC033,0.00,VWS V14.01,2013-01-20 19:34:00,
2013-01-20 14:39:00,70.5,65.8,30.07,WNW,301,0.0,13.0,85,0.00,,OVC033,0.00,VWS V14.01,2013-01-20 19:39:00,
2013-01-20 14:44:00,70.4,65.7,30.06,North,4,3.0,13.0,85,0.00,,OVC033,0.00,VWS V14.01,2013-01-20 19:44:00,
2013-01-20 14:49:00,70.4,65.7,30.07,North,6,2.0,13.0,85,0.00,,OVC033,0.00,VWS V14.01,2013-01-20 19:49:00,
2013-01-20 14:54:00,70.3,65.6,30.06,NNW,340,2.0,13.0,85,0.00,,OVC033,0.00,VWS V14.01,2013-01-20 19:54:00,
2013-01-20 14:59:00,70.0,65.6,30.07,NNW,334,2.0,13.0,86,0.00,,OVC033,0.00,VWS V14.01,2013-01-20 19:59:00,
2013-01-20 15:04:00,70.0,65.3,30.07,North,350,0.0,8.0,85,0.00,,BKN090,0.00,VWS V14.01,2013-01-20 20:04:00,
2013-01-20 15:09:00,70.1,65.4,30.07,North,11,0.0,9.0,85,0.00,,BKN090,0.00,VWS V14.01,2013-01-20 20:09:00,
2013-01-20 15:14:00,70.1,65.4,30.06,North,1,3.0,9.0,85,0.00,,BKN090,0.00,VWS V14.01,2013-01-20 20:14:00,
2013-01-20 15:19:00,70.2,65.5,30.07,North,354,1.0,9.0,85,0.00,,BKN090,0.00,VWS V14.01,2013-01-20 20:19:00,
2013-01-20 15:24:00,70.0,65.3,30.06,North,359,0.0,9.0,85,0.00,,BKN090,0.00,VWS V14.01,2013-01-20 20:24:00,
2013-01-20 15:29:00,69.9,65.5,30.07,North,9,2.0,9.0,86,0.00,,BKN090,0.00,VWS V14.01,2013-01-20 20:29:00,
2013-01-20 15:34:00,69.9,65.9,30.06,North,8,6.0,9.0,87,0.00,,BKN090,0.00,VWS V14.01,2013-01-20 20:34:00,
2013-01-20 15:39:00,70.0,66.3,30.06,North,355,2.0,9.0,88,0.00,,BKN090,0.00,VWS V14.01,2013-01-20 20:39:00,
2013-01-20 15:44:00,70.3,66.2,30.07,NNW,331,4.0,9.0,87,0.00,,BKN090,0.00,VWS V14.01,2013-01-20 20:44:00,
2013-01-20 15:49:00,70.2,65.8,30.08,NNE,15,3.0,9.0,86,0.00,,BKN090,0.00,VWS V14.01,2013-01-20 20:49:00,
2013-01-20 15:54:00,70.1,66.1,30.06,NE,38,4.0,9.0,87,0.00,,BKN090,0.00,VWS V14.01,2013-01-20 20:54:00,
2013-01-20 15:59:00,70.0,66.3,30.06,NNW,343,3.0,9.0,88,0.00,,BKN090,0.00,VWS V14.01,2013-01-20 20:59:00,
2013-01-20 16:04:00,69.9,66.2,30.06,NNW,336,4.0,9.0,88,0.00,,BKN090,0.00,VWS V14.01,2013-01-20 21:04:00,
2013-01-20 16:09:00,69.8,66.1,30.07,North,0,3.0,9.0,88,0.00,,BKN090,0.00,VWS V14.01,2013-01-20 21:09:00,
2013-01-20 16:14:00,69.9,66.2,30.08,NNW,339,3.0,9.0,88,0.00,,BKN090,0.00,VWS V14.01,2013-01-20 21:14:00,
2013-01-20 16:19:00,70.0,66.0,30.07,North,350,5.0,9.0,87,0.00,,BKN090,0.00,VWS V14.01,2013-01-20 21:19:00,
2013-01-20 16:24:00,70.1,66.1,30.07,North,357,7.0,10.0,87,0.00,,BKN090,0.00,VWS V14.01,2013-01-20 21:24:00,
2013-01-20 16:29:00,70.1,66.1,30.07,NNE,16,4.0,10.0,87,0.00,,BKN090,0.00,VWS V14.01,2013-01-20 21:29:00,
2013-01-20 16:34:00,69.9,65.9,30.07,North,353,6.0,10.0,87,0.00,,BKN090,0.00,VWS V14.01,2013-01-20 21:34:00,
2013-01-20 16:39:00,69.7,65.7,30.07,North,10,0.0,10.0,87,0.00,,BKN090,0.00,VWS V14.01,2013-01-20 21:39:00,
2013-01-20 16:44:00,69.8,65.8,30.07,North,3,2.0,10.0,87,0.00,,BKN090,0.00,VWS V14.01,2013-01-20 21:44:00,
2013-01-20 16:49:00,69.8,66.1,30.08,NNW,333,2.0,10.0,88,0.00,,BKN090,0.00,VWS V14.01,2013-01-20 21:49:00,
2013-01-20 16:54:00,69.5,65.8,30.08,NNE,15,6.0,10.0,88,0.00,,BKN090,0.00,VWS V14.01,2013-01-20 21:54:00,
2013-01-20 16:59:00,69.1,65.4,30.07,North,0,3.0,10.0,88,0.00,,BKN090,0.00,VWS V14.01,2013-01-20 21:59:00,
2013-01-20 17:04:00,68.8,65.1,30.06,North,8,3.0,7.0,88,0.00,,BKN090,0.00,VWS V14.01,2013-01-20 22:04:00,
2013-01-20 17:09:00,68.5,65.1,30.07,NNW,327,0.0,8.0,89,0.00,,BKN090,0.00,VWS V14.01,2013-01-20 22:09:00,
2013-01-20 17:14:00,68.4,65.0,30.07,North,1,4.0,8.0,89,0.00,,BKN090,0.00,VWS V14.01,2013-01-20 22:14:00,
2013-01-20 17:19:00,68.4,65.0,30.07,NNE,25,0.0,8.0,89,0.00,,BKN090,0.00,VWS V14.01,2013-01-20 22:19:00,
2013-01-20 17:24:00,68.5,65.1,30.07,NNE,20,1.0,8.0,89,0.00,,BKN090,0.00,VWS V14.01,2013-01-20 22:24:00,
2013-01-20 17:29:00,68.5,65.1,30.07,NNE,22,3.0,9.0,89,0.00,,BKN090,0.00,VWS V14.01,2013-01-20 22:29:00,
2013-01-20 17:34:00,68.4,65.4,30.07,North,4,2.0,10.0,90,0.00,,BKN090,0.00,VWS V14.01,2013-01-20 22:34:00,
2013-01-20 17:39:00,68.3,65.3,30.08,North,359,2.0,10.0,90,0.00,,BKN090,0.00,VWS V14.01,2013-01-20 22:39:00,
2013-01-20 17:44:00,68.2,65.2,30.08,NNE,17,4.0,10.0,90,0.00,,BKN090,0.00,VWS V14.01,2013-01-20 22:44:00,
2013-01-20 17:49:00,68.1,65.1,30.07,NNE,14,5.0,10.0,90,0.00,,BKN090,0.00,VWS V14.01,2013-01-20 22:49:00,
2013-01-20 17:54:00,68.1,65.1,30.07,North,1,5.0,10.0,90,0.00,,BKN026,0.00,VWS V14.01,2013-01-20 22:54:00,
2013-01-20 17:59:00,68.0,65.3,30.07,North,357,0.0,10.0,91,0.00,,BKN026,0.00,VWS V14.01,2013-01-20 22:59:00,
2013-01-20 18:04:00,68.0,65.3,30.08,North,359,3.0,6.0,91,0.00,,SCT026,0.00,VWS V14.01,2013-01-20 23:04:00,
2013-01-20 18:09:00,68.0,65.0,30.09,North,11,8.0,8.0,90,0.00,,SCT026,0.00,VWS V14.01,2013-01-20 23:09:00,
2013-01-20 18:14:00,68.0,65.0,30.08,North,10,6.0,10.0,90,0.00,,SCT026,0.00,VWS V14.01,2013-01-20 23:14:00,
2013-01-20 18:19:00,67.9,64.9,30.07,North,0,2.0,10.0,90,0.00,,BKN021,0.00,VWS V14.01,2013-01-20 23:19:00,
2013-01-20 18:24:00,67.8,64.8,30.08,North,11,1.0,10.0,90,0.00,,BKN021,0.00,VWS V14.01,2013-01-20 23:24:00,
2013-01-20 18:29:00,67.6,64.6,30.08,North,8,5.0,10.0,90,0.00,,BKN021,0.00,VWS V14.01,2013-01-20 23:29:00,
2013-01-20 18:34:00,67.5,64.5,30.08,NNW,339,2.0,10.0,90,0.00,,BKN021,0.00,VWS V14.01,2013-01-20 23:34:00,
2013-01-20 18:39:00,67.4,64.4,30.08,North,6,2.0,10.0,90,0.00,,BKN021,0.00,VWS V14.01,2013-01-20 23:39:00,
2013-01-20 18:44:00,67.3,64.3,30.08,NNE,17,3.0,10.0,90,0.00,,BKN021,0.00,VWS V14.01,2013-01-20 23:44:00,
2013-01-20 18:49:00,67.2,64.5,30.08,North,355,3.0,10.0,91,0.00,,SCT023,0.00,VWS V14.01,2013-01-20 23:49:00,
2013-01-20 18:54:00,67.2,64.8,30.08,NNW,347,0.0,10.0,92,0.00,,SCT023,0.00,VWS V14.01,2013-01-20 23:54:00,
2013-01-20 18:59:00,67.2,64.5,30.09,NW,326,2.0,10.0,91,0.00,,BKN023,0.00,VWS V14.01,2013-01-20 23:59:00,
2013-01-20 19:04:00,67.1,64.4,30.08,North,0,0.0,4.0,91,0.00,,BKN023,0.00,VWS V14.01,2013-01-21 00:04:00,
2013-01-20 19:09:00,67.1,64.7,30.08,NW,314,0.0,4.0,92,0.00,,BKN023,0.00,VWS V14.01,2013-01-21 00:09:00,
2013-01-20 19:14:00,67.1,64.4,30.09,North,0,0.0,4.0,91,0.00,,BKN023,0.00,VWS V14.01,2013-01-21 00:14:00,
2013-01-20 19:19:00,67.3,64.6,30.09,North,350,4.0,8.0,91,0.00,,BKN023,0.00,VWS V14.01,2013-01-21 00:19:00,
2013-01-20 19:24:00,67.3,64.9,30.08,North,1,1.0,9.0,92,0.00,,FEW014,0.00,VWS V14.01,2013-01-21 00:24:00,
2013-01-20 19:29:00,67.3,64.6,30.08,North,353,2.0,9.0,91,0.00,,FEW014,0.00,VWS V14.01,2013-01-21 00:29:00,
2013-01-20 19:34:00,67.2,64.5,30.08,NNE,29,1.0,9.0,91,0.00,,FEW014,0.00,VWS V14.01,2013-01-21 00:34:00,
2013-01-20 19:39:00,67.1,64.4,30.09,NNE,21,0.0,9.0,91,0.00,,FEW014,0.00,VWS V14.01,2013-01-21 00:39:00,
2013-01-20 19:44:00,67.0,64.6,30.08,North,3,2.0,9.0,92,0.00,,FEW014,0.00,VWS V14.01,2013-01-21 00:44:00,
2013-01-20 19:49:00,67.0,64.6,30.08,NW,312,3.0,9.0,92,0.00,,FEW014,0.00,VWS V14.01,2013-01-21 00:49:00,
2013-01-20 19:54:00,66.9,64.2,30.08,NNE,16,0.0,9.0,91,0.00,,FEW014,0.00,VWS V14.01,2013-01-21 00:54:00,
2013-01-20 19:59:00,66.9,64.2,30.08,North,0,0.0,9.0,91,0.00,,BKN016,0.00,VWS V14.01,2013-01-21 00:59:00,
2013-01-20 20:04:00,66.9,64.2,30.08,NNE,21,3.0,8.0,91,0.00,,BKN016,0.00,VWS V14.01,2013-01-21 01:04:00,
2013-01-20 20:09:00,66.9,64.2,30.09,North,358,0.0,8.0,91,0.00,,BKN016,0.00,VWS V14.01,2013-01-21 01:09:00,
2013-01-20 20:14:00,67.0,64.3,30.08,North,356,2.0,8.0,91,0.00,,BKN016,0.00,VWS V14.01,2013-01-21 01:14:00,
2013-01-20 20:19:00,67.0,64.3,30.09,North,355,3.0,8.0,91,0.00,,FEW016,0.00,VWS V14.01,2013-01-21 01:19:00,
2013-01-20 20:24:00,67.0,64.3,30.07,North,6,0.0,8.0,91,0.00,,FEW016,0.00,VWS V14.01,2013-01-21 01:24:00,
2013-01-20 20:29:00,67.1,64.4,30.08,NNE,14,5.0,8.0,91,0.00,,FEW016,0.00,VWS V14.01,2013-01-21 01:29:00,
2013-01-20 20:34:00,67.0,64.3,30.07,NNE,13,0.0,8.0,91,0.00,,FEW016,0.00,VWS V14.01,2013-01-21 01:34:00,
2013-01-20 20:39:00,67.0,64.6,30.08,North,354,0.0,8.0,92,0.00,,FEW016,0.00,VWS V14.01,2013-01-21 01:39:00,
2013-01-20 20:44:00,67.0,64.6,30.08,NNE,18,4.0,8.0,92,0.00,,FEW016,0.00,VWS V14.01,2013-01-21 01:44:00,
2013-01-20 20:49:00,67.1,64.7,30.09,North,5,0.0,8.0,92,0.00,,FEW016,0.00,VWS V14.01,2013-01-21 01:49:00,
2013-01-20 20:54:00,67.1,65.0,30.08,NNE,25,4.0,8.0,93,0.00,,FEW016,0.00,VWS V14.01,2013-01-21 01:54:00,
2013-01-20 20:59:00,67.3,64.9,30.09,NNW,343,0.0,8.0,92,0.00,,FEW016,0.00,VWS V14.01,2013-01-21 01:59:00,
2013-01-20 21:04:00,67.3,64.9,30.08,NNE,12,2.0,6.0,92,0.00,,OVC085,0.00,VWS V14.01,2013-01-21 02:04:00,
2013-01-20 21:09:00,67.4,65.0,30.09,North,0,0.0,6.0,92,0.00,,OVC085,0.00,VWS V14.01,2013-01-21 02:09:00,
2013-01-20 21:14:00,67.5,65.4,30.08,North,0,2.0,6.0,93,0.00,,OVC085,0.00,VWS V14.01,2013-01-21 02:14:00,
2013-01-20 21:19:00,67.6,65.2,30.08,NE,36,0.0,6.0,92,0.00,,OVC085,0.00,VWS V14.01,2013-01-21 02:19:00,
2013-01-20 21:24:00,67.7,65.3,30.10,North,11,0.0,6.0,92,0.00,,OVC085,0.00,VWS V14.01,2013-01-21 02:24:00,
2013-01-20 21:29:00,67.8,65.4,30.09,North,359,1.0,6.0,92,0.00,,OVC085,0.00,VWS V14.01,2013-01-21 02:29:00,
2013-01-20 21:34:00,67.8,65.4,30.09,North,8,3.0,6.0,92,0.00,,OVC085,0.00,VWS V14.01,2013-01-21 02:34:00,
2013-01-20 21:39:00,67.9,65.5,30.09,North,9,4.0,6.0,92,0.00,,OVC085,0.00,VWS V14.01,2013-01-21 02:39:00,
2013-01-20 21:44:00,68.0,65.3,30.09,North,358,4.0,6.0,91,0.00,,OVC085,0.00,VWS V14.01,2013-01-21 02:44:00,
2013-01-20 21:49:00,68.1,66.0,30.09,NW,312,0.0,6.0,93,0.00,,OVC085,0.00,VWS V14.01,2013-01-21 02:49:00,
2013-01-20 21:54:00,68.1,65.7,30.10,NNW,329,0.0,6.0,92,0.00,,OVC085,0.00,VWS V14.01,2013-01-21 02:54:00,
2013-01-20 21:59:00,68.1,66.3,30.09,NNW,330,2.0,6.0,94,0.00,,OVC085,0.00,VWS V14.01,2013-01-21 02:59:00,
2013-01-20 22:04:00,68.1,65.4,30.09,NNE,12,0.0,5.0,91,0.00,,BKN085,0.00,VWS V14.01,2013-01-21 03:04:00,
2013-01-20 22:09:00,68.1,65.4,30.09,NNE,13,4.0,5.0,91,0.00,,BKN085,0.00,VWS V14.01,2013-01-21 03:09:00,
2013-01-20 22:14:00,68.2,65.5,30.10,North,0,0.0,6.0,91,0.00,,BKN085,0.00,VWS V14.01,2013-01-21 03:14:00,
2013-01-20 22:19:00,68.3,65.9,30.10,North,7,0.0,6.0,92,0.00,,BKN085,0.00,VWS V14.01,2013-01-21 03:19:00,
2013-01-20 22:24:00,68.4,66.0,30.09,North,0,0.0,6.0,92,0.00,,BKN085,0.00,VWS V14.01,2013-01-21 03:24:00,
2013-01-20 22:29:00,68.4,66.0,30.09,NNW,328,0.0,6.0,92,0.00,,BKN085,0.00,VWS V14.01,2013-01-21 03:29:00,
2013-01-20 22:34:00,68.4,66.0,30.10,NW,323,0.0,6.0,92,0.00,,BKN085,0.00,VWS V14.01,2013-01-21 03:34:00,
2013-01-20 22:39:00,68.3,65.9,30.09,North,0,2.0,6.0,92,0.00,,BKN085,0.00,VWS V14.01,2013-01-21 03:39:00,
2013-01-20 22:44:00,68.3,65.9,30.09,North,2,0.0,6.0,92,0.00,,BKN085,0.00,VWS V14.01,2013-01-21 03:44:00,
2013-01-20 22:49:00,68.4,66.0,30.09,North,8,1.0,6.0,92,0.00,,BKN085,0.00,VWS V14.01,2013-01-21 03:49:00,
2013-01-20 22:54:00,68.4,65.7,30.09,North,8,0.0,6.0,91,0.00,,BKN085,0.00,VWS V14.01,2013-01-21 03:54:00,
2013-01-20 22:59:00,68.4,66.0,30.08,North,357,1.0,6.0,92,0.00,,BKN085,0.00,VWS V14.01,2013-01-21 03:59:00,
2013-01-20 23:04:00,68.5,66.1,30.08,NNE,23,0.0,4.0,92,0.00,,SCT085,0.00,VWS V14.01,2013-01-21 04:04:00,
2013-01-20 23:09:00,68.6,66.2,30.08,NE,34,1.0,4.0,92,0.00,,SCT085,0.00,VWS V14.01,2013-01-21 04:09:00,
2013-01-20 23:14:00,68.9,66.2,30.08,NE,43,3.0,8.0,91,0.00,,SCT085,0.00,VWS V14.01,2013-01-21 04:14:00,
2013-01-20 23:19:00,69.1,66.1,30.08,North,0,0.0,8.0,90,0.00,,SCT085,0.00,VWS V14.01,2013-01-21 04:19:00,
2013-01-20 23:24:00,69.2,66.2,30.09,North,0,0.0,8.0,90,0.00,,SCT085,0.00,VWS V14.01,2013-01-21 04:24:00,
2013-01-20 23:29:00,69.3,66.2,30.09,North,0,0.0,8.0,90,0.00,,SCT085,0.00,VWS V14.01,2013-01-21 04:29:00,
2013-01-20 23:34:00,69.3,66.9,30.09,North,0,0.0,8.0,92,0.00,,SCT085,0.00,VWS V14.01,2013-01-21 04:34:00,
2013-01-20 23:39:00,69.3,66.2,30.09,North,0,0.0,8.0,90,0.00,,SCT085,0.00,VWS V14.01,2013-01-21 04:39:00,
2013-01-20 23:44:00,69.3,66.2,30.08,NNE,24,0.0,8.0,90,0.00,,OVC065,0.00,VWS V14.01,2013-01-21 04:44:00,
2013-01-20 23:49:00,69.3,66.2,30.08,NNE,28,0.0,8.0,90,0.00,,OVC065,0.00,VWS V14.01,2013-01-21 04:49:00,
2013-01-20 23:54:00,69.3,66.6,30.07,NNE,33,3.0,8.0,91,0.00,,OVC065,0.00,VWS V14.01,2013-01-21 04:54:00,
2013-01-20 23:59:00,69.1,66.4,30.07,NNE,28,0.0,8.0,91,0.00,,OVC065,0.00,VWS V14.01,2013-01-21 04:59:00,